Time;durP1;ratioP1;P1;durP2;ratioP2;P2;SDS_P1;SDS_P2;PMS_P1;PMS_P2;Temp;Humidity;BMP_temperature;BMP_pressure;BME280_temperature;BME280_humidity;BME280_pressure;Samples;Min_cycle;Max_cycle;Signal;HPM_P1;HPM_P2
2021/04/02 00:00:37;;;;;;;34.53;21.60;;;12.50;99.90;;;;;;5051055;28;21014;-86
2021/04/02 00:03:10;;;;;;;32.27;22.73;;;12.30;99.90;;;;;;5052024;28;20454;-89
2021/04/02 00:05:37;;;;;;;39.90;21.03;;;12.40;99.90;;;;;;5048879;28;20969;-87
2021/04/02 00:08:04;;;;;;;34.17;19.83;;;;;;;;;;5017042;28;20446;-86
2021/04/02 00:10:35;;;;;;;40.17;22.90;;;12.30;99.90;;;;;;5048874;28;20446;-88
2021/04/02 00:13:02;;;;;;;39.40;22.10;;;;;;;;;;5052336;28;20476;-86
2021/04/02 00:15:28;;;;;;;40.70;23.50;;;;;;;;;;5047540;28;20477;-87
2021/04/02 00:17:55;;;;;;;40.33;23.80;;;;;;;;;;5051757;28;20758;-85
2021/04/02 00:20:21;;;;;;;42.60;24.20;;;;;;;;;;5053723;28;20948;-86
2021/04/02 00:22:49;;;;;;;40.50;24.50;;;12.00;99.90;;;;;;5055477;28;20944;-85
2021/04/02 00:25:16;;;;;;;41.00;24.53;;;11.90;99.90;;;;;;5055408;28;20938;-87
2021/04/02 00:27:42;;;;;;;37.10;22.83;;;11.90;99.90;;;;;;5052378;28;20447;-87
2021/04/02 00:30:12;;;;;;;37.60;25.27;;;12.00;99.90;;;;;;5048511;28;20446;-88
2021/04/02 00:32:39;;;;;;;38.07;24.10;;;;;;;;;;5055576;28;20462;-84
2021/04/02 00:35:06;;;;;;;36.73;24.60;;;11.80;99.90;;;;;;5055432;28;20597;-86
2021/04/02 00:37:33;;;;;;;41.33;25.50;;;;;;;;;;5055702;28;20450;-88
2021/04/02 00:40:00;;;;;;;44.60;26.47;;;11.70;99.90;;;;;;5055411;28;20450;-86
2021/04/02 00:42:27;;;;;;;40.00;27.10;;;;;;;;;;5052341;28;20447;-86
2021/04/02 00:44:54;;;;;;;40.03;23.97;;;;;;;;;;5053954;28;20454;-88
2021/04/02 00:47:20;;;;;;;36.80;25.30;;;;;;;;;;5055361;28;20938;-86
2021/04/02 00:49:47;;;;;;;38.40;25.10;;;;;;;;;;5055427;28;20454;-87
2021/04/02 00:52:13;;;;;;;49.70;26.63;;;;;;;;;;5055128;28;20450;-88
2021/04/02 00:54:40;;;;;;;41.80;26.80;;;;;;;;;;5055017;28;20490;-88
2021/04/02 00:57:07;;;;;;;40.93;25.27;;;11.40;99.90;;;;;;5055293;28;20513;-85
2021/04/02 00:59:34;;;;;;;37.90;24.60;;;;;;;;;;5053786;28;20438;-88
2021/04/02 01:02:01;;;;;;;40.63;25.07;;;;;;;;;;5052056;28;20930;-90
2021/04/02 01:04:27;;;;;;;48.93;25.73;;;;;;;;;;5051820;28;20455;-86
2021/04/02 01:06:54;;;;;;;43.30;25.77;;;;;;;;;;5054784;28;20470;-87
2021/04/02 01:09:21;;;;;;;41.13;24.67;;;;;;;;;;5054888;28;20451;-90
2021/04/02 01:11:47;;;;;;;40.30;22.97;;;;;;;;;;5054726;28;20449;-87
2021/04/02 01:14:14;;;;;;;39.10;25.20;;;11.00;99.90;;;;;;5053438;28;20555;-89
2021/04/02 01:16:44;;;;;;;43.50;25.47;;;10.90;99.90;;;;;;5054795;28;20569;-87
2021/04/02 01:19:15;;;;;;;33.57;23.27;;;10.90;99.90;;;;;;5054708;28;20813;-87
2021/04/02 01:21:46;;;;;;;44.13;26.90;;;10.90;99.90;;;;;;5054608;28;20438;-88
2021/04/02 01:24:27;;;;;;;42.73;25.80;;;10.90;99.90;;;;;;5054802;28;20528;-88
2021/04/02 01:27:06;;;;;;;42.53;24.10;;;10.90;99.90;;;;;;5054723;28;20447;-88
2021/04/02 01:29:42;;;;;;;43.67;26.33;;;10.90;99.90;;;;;;5053307;28;20450;-90
2021/04/02 01:32:13;;;;;;;37.47;22.20;;;10.80;99.90;;;;;;5053973;28;20512;-88
2021/04/02 01:34:43;;;;;;;35.90;22.33;;;10.80;99.90;;;;;;5054179;28;21022;-86
2021/04/02 01:37:14;;;;;;;38.50;23.23;;;10.70;99.90;;;;;;5051052;28;20440;-87
2021/04/02 01:39:42;;;;;;;37.27;22.67;;;10.60;99.90;;;;;;5054542;28;20500;-89
2021/04/02 01:42:14;;;;;;;42.00;23.63;;;10.50;99.90;;;;;;5054300;28;20458;-89
2021/04/02 01:44:51;;;;;;;36.60;22.40;;;;;;;;;;5043285;28;20960;-88
2021/04/02 01:47:26;;;;;;;38.47;23.90;;;10.30;99.90;;;;;;5049132;28;20452;-91
2021/04/02 01:49:56;;;;;;;39.07;23.90;;;10.20;99.90;;;;;;5051476;28;20512;-90
2021/04/02 01:52:24;;;;;;;34.70;23.27;;;10.20;99.90;;;;;;5043860;28;20440;-87
2021/04/02 01:54:52;;;;;;;38.50;24.73;;;10.20;99.90;;;;;;5048899;28;20812;-88
2021/04/02 01:57:25;;;;;;;38.10;23.90;;;10.10;99.90;;;;;;5047951;28;20447;-89
2021/04/02 01:59:55;;;;;;;37.53;23.63;;;9.70;99.90;;;;;;5046718;28;20450;-86
2021/04/02 02:02:22;;;;;;;35.23;22.73;;;9.90;99.90;;;;;;5046407;28;20476;-85
2021/04/02 02:04:52;;;;;;;36.07;23.87;;;10.00;99.90;;;;;;5043721;28;20439;-90
2021/04/02 02:07:22;;;;;;;36.90;24.70;;;9.90;99.90;;;;;;5044503;28;20471;-89
2021/04/02 02:09:52;;;;;;;32.93;23.20;;;9.90;99.90;;;;;;5044698;28;20471;-91
2021/04/02 02:12:20;;;;;;;35.37;22.17;;;;;;;;;;5039237;28;20450;-90
2021/04/02 02:14:50;;;;;;;34.70;23.63;;;;;;;;;;5046405;28;20490;-89
2021/04/02 02:17:22;;;;;;;33.37;22.40;;;9.90;99.90;;;;;;5039718;28;20509;-87
2021/04/02 02:19:52;;;;;;;35.03;22.30;;;9.90;99.90;;;;;;5043096;28;20799;-90
2021/04/02 02:22:25;;;;;;;39.53;23.13;;;9.80;99.90;;;;;;5045241;28;20463;-89
2021/04/02 02:24:52;;;;;;;35.97;23.30;;;;;;;;;;5036473;28;20569;-87
2021/04/02 02:27:19;;;;;;;36.00;23.60;;;;;;;;;;5041164;28;20459;-87
2021/04/02 02:29:45;;;;;;;34.67;22.10;;;;;;;;;;5032557;28;20824;-89
2021/04/02 02:32:12;;;;;;;37.40;23.53;;;;;;;;;;5033502;28;20439;-86
2021/04/02 02:34:39;;;;;;;31.90;20.90;;;9.60;99.90;;;;;;5033583;28;20471;-90
2021/04/02 02:37:06;;;;;;;32.10;21.10;;;;;;;;;;5030492;28;20440;-86
2021/04/02 02:39:32;;;;;;;33.03;21.40;;;;;;;;;;5033199;28;20448;-87
2021/04/02 02:42:03;;;;;;;30.40;19.60;;;9.60;99.90;;;;;;5032796;28;20548;-87
2021/04/02 02:44:30;;;;;;;35.97;19.70;;;;;;;;;;5032324;28;20455;-87
2021/04/02 02:46:57;;;;;;;33.43;19.37;;;;;;;;;;5033163;28;20463;-88
2021/04/02 02:49:25;;;;;;;28.47;18.20;;;9.50;99.90;;;;;;5033203;28;20448;-87
2021/04/02 02:51:56;;;;;;;28.67;18.30;;;9.50;99.90;;;;;;5033153;28;20466;-86
2021/04/02 02:54:24;;;;;;;27.20;17.87;;;9.50;99.90;;;;;;5032789;28;20517;-86
2021/04/02 02:56:53;;;;;;;29.57;17.63;;;9.40;99.90;;;;;;5032877;28;20443;-86
2021/04/02 02:59:22;;;;;;;32.63;19.53;;;9.40;99.90;;;;;;5031982;28;20451;-87
2021/04/02 03:01:49;;;;;;;34.17;18.90;;;;;;;;;;5033015;28;20447;-84
2021/04/02 03:04:17;;;;;;;27.30;19.00;;;9.30;99.90;;;;;;5032795;28;20451;-87
2021/04/02 03:06:45;;;;;;;27.90;18.03;;;;;;;;;;5028778;28;20476;-86
2021/04/02 03:09:15;;;;;;;29.03;18.40;;;9.20;99.90;;;;;;5032598;28;20462;-86
2021/04/02 03:11:43;;;;;;;27.67;17.30;;;9.20;99.90;;;;;;5032716;28;20447;-86
2021/04/02 03:14:10;;;;;;;23.80;16.50;;;9.10;99.90;;;;;;5031566;28;20659;-87
2021/04/02 03:16:42;;;;;;;28.47;17.00;;;9.10;99.90;;;;;;5030723;28;20458;-85
2021/04/02 03:19:11;;;;;;;27.67;18.50;;;9.20;99.90;;;;;;5032350;28;20451;-87
2021/04/02 03:21:38;;;;;;;30.43;17.80;;;;;;;;;;5032342;28;20452;-86
2021/04/02 03:24:06;;;;;;;22.93;16.57;;;9.00;99.90;;;;;;5032405;28;20787;-87
2021/04/02 03:26:34;;;;;;;32.17;17.37;;;9.00;99.90;;;;;;5032440;28;20443;-88
2021/04/02 03:29:01;;;;;;;26.83;15.70;;;;;;;;;;5028207;28;20439;-85
2021/04/02 03:31:28;;;;;;;21.23;13.70;;;8.80;99.90;;;;;;5032386;28;20459;-88
2021/04/02 03:34:00;;;;;;;21.10;13.80;;;8.90;99.90;;;;;;5032308;28;20518;-88
2021/04/02 03:36:30;;;;;;;24.47;14.03;;;8.80;99.90;;;;;;5032374;28;20455;-88
2021/04/02 03:38:57;;;;;;;28.43;15.27;;;8.80;99.90;;;;;;5032239;28;20501;-87
2021/04/02 03:41:25;;;;;;;21.57;14.50;;;8.70;99.90;;;;;;5032319;28;20919;-89
2021/04/02 03:43:54;;;;;;;24.67;14.70;;;8.70;99.90;;;;;;5031598;28;20466;-87
2021/04/02 03:46:22;;;;;;;20.83;13.70;;;8.70;99.90;;;;;;5032007;28;20443;-85
2021/04/02 03:48:50;;;;;;;21.97;12.33;;;8.60;99.90;;;;;;5029019;28;20451;-89
2021/04/02 03:51:20;;;;;;;21.10;11.70;;;8.50;99.90;;;;;;5032248;28;20443;-85
2021/04/02 03:53:52;;;;;;;22.47;12.60;;;8.30;99.90;;;;;;5024220;28;20958;-84
2021/04/02 03:56:22;;;;;;;16.73;10.83;;;8.40;99.90;;;;;;5030930;28;20447;-87
2021/04/02 03:58:49;;;;;;;14.83;8.53;;;8.30;99.90;;;;;;5035982;28;20466;-85
2021/04/02 04:01:19;;;;;;;17.47;9.23;;;8.20;99.90;;;;;;5035319;28;20451;-88
2021/04/02 04:03:48;;;;;;;17.70;9.67;;;8.20;99.90;;;;;;5036004;28;20574;-86
2021/04/02 04:06:18;;;;;;;15.20;8.40;;;8.20;99.90;;;;;;5031635;28;20533;-86
2021/04/02 04:08:45;;;;;;;13.73;8.63;;;8.10;99.90;;;;;;5036049;28;20494;-88
2021/04/02 04:11:15;;;;;;;13.13;7.23;;;8.00;99.90;;;;;;5035741;28;20938;-85
2021/04/02 04:13:45;;;;;;;12.33;6.67;;;7.90;99.90;;;;;;5035831;28;20836;-86
2021/04/02 04:16:13;;;;;;;11.67;7.47;;;7.80;99.90;;;;;;5034791;28;20463;-86
2021/04/02 04:18:43;;;;;;;9.60;7.00;;;7.80;99.90;;;;;;5035859;28;20494;-86
2021/04/02 04:21:10;;;;;;;12.73;6.47;;;;;;;;;;5032915;28;20450;-88
2021/04/02 04:23:39;;;;;;;11.37;6.23;;;7.60;99.90;;;;;;5035681;28;20444;-88
2021/04/02 04:26:10;;;;;;;6.90;5.10;;;7.50;99.90;;;;;;5043436;28;20499;-86
2021/04/02 04:28:40;;;;;;;9.40;4.90;;;7.50;99.90;;;;;;5046107;28;20496;-90
2021/04/02 04:31:11;;;;;;;8.80;5.47;;;6.50;99.90;;;;;;5045600;28;20443;-90
2021/04/02 04:33:44;;;;;;;7.13;4.60;;;7.50;99.90;;;;;;5045702;28;20851;-86
2021/04/02 04:36:11;;;;;;;7.77;4.33;;;7.30;99.90;;;;;;5045213;28;20451;-92
2021/04/02 04:38:40;;;;;;;7.43;4.50;;;7.60;99.90;;;;;;5041017;28;20458;-85
2021/04/02 04:41:10;;;;;;;11.10;4.27;;;7.20;99.90;;;;;;5043907;28;20446;-88
2021/04/02 04:43:42;;;;;;;5.80;3.70;;;7.10;99.90;;;;;;5046404;28;20528;-85
2021/04/02 04:46:11;;;;;;;5.93;3.97;;;7.20;99.90;;;;;;5043356;28;20451;-88
2021/04/02 04:48:41;;;;;;;5.60;3.27;;;;;;;;;;5044439;28;20951;-88
2021/04/02 04:51:09;;;;;;;9.27;3.30;;;6.80;99.90;;;;;;5045034;28;20443;-88
2021/04/02 04:53:39;;;;;;;3.37;2.77;;;7.10;99.90;;;;;;5042425;28;20478;-87
2021/04/02 04:56:07;;;;;;;4.80;2.87;;;7.00;99.90;;;;;;5055214;28;20442;-89
2021/04/02 04:58:36;;;;;;;5.63;2.97;;;6.70;99.90;;;;;;5055325;28;20898;-88
2021/04/02 05:01:08;;;;;;;6.17;2.90;;;6.30;99.90;;;;;;5054224;28;20458;-87
2021/04/02 05:03:35;;;;;;;5.07;2.87;;;6.80;99.90;;;;;;5055002;28;20456;-88
2021/04/02 05:06:02;;;;;;;3.03;2.20;;;6.90;99.90;;;;;;5053935;28;20787;-87
2021/04/02 05:08:34;;;;;;;2.90;2.37;;;6.50;99.90;;;;;;5055010;28;20442;-87
2021/04/02 05:11:01;;;;;;;4.00;2.50;;;6.60;99.90;;;;;;5054962;28;20450;-86
2021/04/02 05:13:31;;;;;;;2.90;2.60;;;6.60;99.90;;;;;;5019763;28;20445;-85
2021/04/02 05:15:59;;;;;;;3.83;2.87;;;6.60;99.90;;;;;;5050690;28;20446;-86
2021/04/02 05:18:28;;;;;;;7.67;3.03;;;6.50;99.90;;;;;;5054458;28;20451;-85
2021/04/02 05:20:56;;;;;;;5.17;2.60;;;6.60;99.90;;;;;;5045583;28;20438;-85
2021/04/02 05:23:23;;;;;;;2.60;2.23;;;6.50;99.90;;;;;;5045149;28;20462;-85
2021/04/02 05:25:52;;;;;;;3.40;2.33;;;6.40;99.90;;;;;;5044222;28;20447;-87
2021/04/02 05:28:18;;;;;;;3.53;2.67;;;6.60;99.90;;;;;;5045669;28;20451;-85
2021/04/02 05:30:45;;;;;;;2.73;2.17;;;6.80;99.90;;;;;;5041182;28;20450;-87
2021/04/02 05:33:15;;;;;;;5.10;2.50;;;6.70;99.90;;;;;;5044330;28;20454;-87
2021/04/02 05:35:42;;;;;;;4.23;2.43;;;;;;;;;;5042430;28;20491;-84
2021/04/02 05:38:09;;;;;;;2.57;2.37;;;;;;;;;;5044090;28;20988;-87
2021/04/02 05:40:39;;;;;;;6.00;2.60;;;;;;;;;;5044625;28;20458;-87
2021/04/02 05:43:12;;;;;;;6.13;2.87;;;6.70;99.90;;;;;;5044766;28;20465;-87
2021/04/02 05:45:46;;;;;;;5.13;2.40;;;6.80;99.90;;;;;;5043711;28;20442;-86
2021/04/02 05:48:18;;;;;;;8.73;2.67;;;6.80;99.90;;;;;;5044149;28;20493;-89
2021/04/02 05:50:55;;;;;;;4.40;2.33;;;7.00;99.90;;;;;;5044953;28;20814;-90
2021/04/02 05:53:25;;;;;;;3.33;2.50;;;7.50;99.90;;;;;;5045129;28;20442;-86
2021/04/02 05:55:55;;;;;;;3.20;2.33;;;7.70;99.90;;;;;;5042547;28;20474;-89
2021/04/02 05:58:30;;;;;;;2.97;2.70;;;7.80;99.90;;;;;;5044899;28;20475;-86
2021/04/02 06:00:57;;;;;;;3.40;3.00;;;;;;;;;;5043179;28;20450;-86
2021/04/02 06:03:26;;;;;;;3.50;2.93;;;8.10;99.90;;;;;;5044590;28;20438;-87
2021/04/02 06:05:53;;;;;;;7.87;3.03;;;;;;;;;;5043786;28;20579;-85
2021/04/02 06:08:23;;;;;;;4.70;3.00;;;8.50;99.90;;;;;;5039013;28;20443;-90
2021/04/02 06:10:49;;;;;;;4.80;3.40;;;8.80;99.90;;;;;;5004960;28;20444;-88
2021/04/02 06:13:27;;;;;;;5.23;3.37;;;8.80;99.90;;;;;;5044000;28;20444;-89
2021/04/02 06:15:56;;;;;;;6.40;3.57;;;8.60;99.90;;;;;;5043493;28;20438;-88
2021/04/02 06:18:24;;;;;;;6.07;3.70;;;9.10;99.90;;;;;;5043843;28;20501;-88
2021/04/02 06:20:52;;;;;;;4.73;3.10;;;9.30;99.90;;;;;;5044368;28;20466;-86
2021/04/02 06:23:20;;;;;;;4.63;3.63;;;9.20;99.90;;;;;;5042962;28;20911;-86
2021/04/02 06:25:48;;;;;;;3.70;3.00;;;9.30;99.90;;;;;;5046565;28;20894;-85
2021/04/02 06:28:18;;;;;;;6.83;3.63;;;9.50;99.90;;;;;;5036308;28;20444;-86
2021/04/02 06:30:49;;;;;;;5.23;3.00;;;9.60;99.90;;;;;;5051511;28;20447;-88
2021/04/02 06:33:17;;;;;;;4.70;2.87;;;8.90;99.90;;;;;;5052973;28;20878;-86
2021/04/02 06:35:44;;;;;;;4.53;3.23;;;9.90;99.90;;;;;;5041710;28;20604;-89
2021/04/02 06:38:11;;;;;;;5.77;3.27;;;;;;;;;;5030032;28;20502;-88
2021/04/02 06:40:38;;;;;;;6.50;3.23;;;10.10;99.40;;;;;;5038461;28;20451;-88
2021/04/02 06:43:08;;;;;;;5.93;4.43;;;10.30;99.90;;;;;;5043693;28;20454;-87
2021/04/02 06:45:35;;;;;;;6.10;4.00;;;;;;;;;;5042301;28;20848;-90
2021/04/02 06:48:19;;;;;;;7.63;3.63;;;9.90;99.90;;;;;;5046824;28;20454;-88
2021/04/02 06:50:46;;;;;;;4.23;3.67;;;10.00;99.90;;;;;;5043237;28;20529;-87
2021/04/02 06:53:16;;;;;;;6.07;3.80;;;;;;;;;;5042229;28;20450;-87
2021/04/02 06:55:43;;;;;;;4.73;3.87;;;;;;;;;;5044094;28;20506;-88
2021/04/02 06:58:10;;;;;;;8.00;3.90;;;9.70;99.90;;;;;;5045556;28;20443;-88
2021/04/02 07:00:39;;;;;;;4.07;3.67;;;9.70;99.90;;;;;;5040029;28;20456;-89
2021/04/02 07:03:08;;;;;;;5.27;4.23;;;9.80;99.90;;;;;;5032962;28;20462;-87
2021/04/02 07:05:35;;;;;;;4.70;4.17;;;9.80;99.90;;;;;;5032367;28;20498;-88
2021/04/02 07:08:05;;;;;;;6.70;3.90;;;10.10;99.60;;;;;;5032764;28;20513;-88
2021/04/02 07:10:33;;;;;;;5.83;4.87;;;10.20;99.90;;;;;;5032326;28;20790;-89
2021/04/02 07:13:02;;;;;;;5.10;3.30;;;13.30;99.90;;;;;;5032778;28;20455;-88
2021/04/02 07:15:31;;;;;;;6.60;4.30;;;11.50;99.90;;;;;;5034331;28;20982;-91
2021/04/02 07:18:00;;;;;;;3.67;3.10;;;;;;;;;;5035015;28;20436;-92
2021/04/02 07:20:26;;;;;;;7.60;4.23;;;;;;;;;;5040149;28;20467;-89
2021/04/02 07:22:54;;;;;;;6.97;4.87;;;12.20;99.90;;;;;;5036195;28;20478;-89
2021/04/02 07:25:21;;;;;;;4.50;3.90;;;12.20;99.90;;;;;;5038820;28;20451;-93
2021/04/02 07:27:48;;;;;;;7.53;3.70;;;12.10;99.90;;;;;;5038231;28;20466;-92
2021/04/02 07:30:17;;;;;;;4.43;4.03;;;12.50;99.90;;;;;;5038672;28;20849;-92
2021/04/02 07:32:44;;;;;;;5.43;4.07;;;11.70;99.90;;;;;;5038873;28;20451;-88
2021/04/02 07:35:16;;;;;;;6.33;4.70;;;11.60;95.60;;;;;;5035274;28;20502;-86
2021/04/02 07:37:47;;;;;;;5.10;4.40;;;11.90;95.10;;;;;;5042911;28;20479;-87
2021/04/02 07:40:17;;;;;;;4.33;3.93;;;12.40;94.90;;;;;;5046917;28;20526;-89
2021/04/02 07:42:52;;;;;;;5.67;5.10;;;12.70;99.90;;;;;;5064073;28;20442;-89
2021/04/02 07:45:22;;;;;;;11.40;5.07;;;12.50;94.00;;;;;;5046845;28;20494;-90
2021/04/02 07:47:54;;;;;;;5.33;4.33;;;12.40;99.90;;;;;;5043540;28;20450;-86
2021/04/02 07:50:38;;;;;;;5.90;4.70;;;13.00;96.00;;;;;;5054225;28;20954;-89
2021/04/02 07:53:05;;;;;;;7.30;5.73;;;12.90;93.40;;;;;;5044121;28;20503;-88
2021/04/02 07:55:33;;;;;;;6.50;4.67;;;13.20;97.80;;;;;;5041212;28;20486;-83
2021/04/02 07:58:02;;;;;;;6.00;4.87;;;13.70;99.90;;;;;;5047118;28;20474;-85
2021/04/02 08:00:30;;;;;;;7.10;5.03;;;13.20;92.60;;;;;;5009821;28;20516;-85
2021/04/02 08:03:15;;;;;;;6.20;5.20;;;13.70;99.90;;;;;;5047825;28;20831;-84
2021/04/02 08:05:58;;;;;;;8.57;5.10;;;13.70;92.60;;;;;;5049972;28;20566;-84
2021/04/02 08:08:25;;;;;;;5.83;5.30;;;13.50;99.40;;;;;;5049827;28;20450;-88
2021/04/02 08:11:05;;;;;;;7.03;5.40;;;14.00;92.20;;;;;;5041431;28;20443;-87
2021/04/02 08:13:50;;;;;;;7.30;5.20;;;13.80;91.80;;;;;;5045373;28;20510;-86
2021/04/02 08:16:46;;;;;;;6.80;5.87;;;14.30;92.80;;;;;;5083608;23;20488;-84
2021/04/02 08:19:14;;;;;;;6.80;5.63;;;14.60;98.60;;;;;;5038949;28;20453;-86
2021/04/02 08:21:43;;;;;;;6.87;6.00;;;14.50;90.60;;;;;;5082518;28;20465;-86
2021/04/02 08:24:11;;;;;;;7.17;6.47;;;13.60;99.90;;;;;;5080545;28;20463;-88
2021/04/02 08:26:39;;;;;;;7.17;6.13;;;13.90;91.90;;;;;;5081329;28;20478;-87
2021/04/02 08:29:08;;;;;;;7.40;6.70;;;14.50;99.10;;;;;;5086312;28;20441;-87
2021/04/02 08:31:36;;;;;;;7.03;6.40;;;15.10;94.60;;;;;;5087586;28;20434;-88
2021/04/02 08:34:02;;;;;;;6.83;6.13;;;;;;;;;;5087693;28;20543;-87
2021/04/02 08:36:29;;;;;;;7.13;6.10;;;14.70;98.60;;;;;;5086090;28;20579;-86
2021/04/02 08:38:56;;;;;;;6.50;5.90;;;;;;;;;;5085124;28;20445;-85
2021/04/02 08:41:25;;;;;;;9.23;6.43;;;14.70;90.50;;;;;;5085829;28;20461;-84
2021/04/02 08:43:52;;;;;;;6.17;5.57;;;14.60;91.10;;;;;;5084579;28;20484;-88
2021/04/02 08:46:36;;;;;;;7.23;6.33;;;13.60;91.20;;;;;;5086428;28;20441;-84
2021/04/02 08:49:04;;;;;;;7.90;6.33;;;14.90;90.10;;;;;;5086456;28;20437;-86
2021/04/02 08:51:31;;;;;;;6.23;5.63;;;15.30;93.90;;;;;;5087663;28;20547;-84
2021/04/02 08:53:57;;;;;;;7.30;6.60;;;15.40;94.30;;;;;;5090598;28;20481;-84
2021/04/02 08:56:24;;;;;;;8.10;6.10;;;;;;;;;;5089357;28;20478;-89
2021/04/02 08:58:54;;;;;;;6.93;6.33;;;15.60;86.60;;;;;;5089747;23;20921;-85
2021/04/02 09:01:22;;;;;;;7.13;6.20;;;16.00;88.10;;;;;;5050937;23;20494;-85
2021/04/02 09:03:52;;;;;;;8.23;7.43;;;15.90;87.10;;;;;;5055196;23;20490;-85
2021/04/02 09:06:23;;;;;;;7.67;6.87;;;16.30;87.40;;;;;;5054814;23;20501;-86
2021/04/02 09:08:49;;;;;;;11.40;7.20;;;;;;;;;;5047301;28;20451;-85
2021/04/02 09:11:16;;;;;;;7.93;6.50;;;;;;;;;;5047555;28;20483;-85
2021/04/02 09:13:44;;;;;;;12.13;7.20;;;16.50;86.40;;;;;;5053950;23;20502;-86
2021/04/02 09:16:13;;;;;;;8.77;6.87;;;16.40;84.60;;;;;;5045836;28;20454;-86
2021/04/02 09:18:53;;;;;;;7.57;6.87;;;16.60;85.20;;;;;;5065431;23;20584;-86
2021/04/02 09:21:21;;;;;;;7.50;6.80;;;16.60;85.10;;;;;;5064155;28;20454;-84
2021/04/02 09:23:49;;;;;;;8.37;7.40;;;17.00;85.10;;;;;;5062972;28;20447;-86
2021/04/02 09:26:15;;;;;;;7.50;6.80;;;;;;;;;;5057576;28;20443;-85
2021/04/02 09:28:42;;;;;;;8.50;7.60;;;;;;;;;;5065250;28;20801;-88
2021/04/02 09:31:20;;;;;;;9.60;7.80;;;17.50;81.70;;;;;;5062734;28;20450;-86
2021/04/02 09:33:50;;;;;;;9.37;8.37;;;17.40;80.30;;;;;;5065513;28;20504;-87
2021/04/02 09:36:18;;;;;;;13.33;7.97;;;16.00;85.80;;;;;;5059481;28;20455;-88
2021/04/02 09:38:45;;;;;;;8.40;7.60;;;16.40;86.50;;;;;;5063683;28;20493;-87
2021/04/02 09:41:12;;;;;;;8.33;7.53;;;;;;;;;;5047862;28;20482;-84
2021/04/02 09:43:46;;;;;;;10.70;8.20;;;14.90;92.40;;;;;;5053727;28;20759;-85
2021/04/02 09:46:27;;;;;;;9.00;8.07;;;15.30;88.70;;;;;;5044127;28;20850;-85
2021/04/02 09:49:02;;;;;;;13.13;8.13;;;16.20;88.60;;;;;;5030334;28;20509;-84
2021/04/02 09:51:28;;;;;;;9.77;8.20;;;;;;;;;;5032125;28;20442;-86
2021/04/02 09:53:55;;;;;;;8.70;7.80;;;;;;;;;;5034782;28;20444;-93
2021/04/02 09:56:22;;;;;;;8.80;8.00;;;;;;;;;;5044478;28;20447;-92
2021/04/02 09:58:48;;;;;;;8.17;7.37;;;;;;;;;;5042762;28;20450;-93
2021/04/02 10:01:15;;;;;;;8.87;7.97;;;;;;;;;;5040148;28;20538;-92
2021/04/02 10:03:41;;;;;;;8.63;7.47;;;;;;;;;;5040969;28;20443;-92
2021/04/02 10:06:08;;;;;;;10.10;8.30;;;18.30;77.50;;;;;;5059904;28;20476;-94
2021/04/02 10:08:35;;;;;;;9.27;8.07;;;;;;;;;;5059741;28;20442;-92
2021/04/02 10:11:01;;;;;;;8.93;8.03;;;;;;;;;;5060211;28;20512;-92
2021/04/02 10:13:28;;;;;;;8.80;7.90;;;;;;;;;;5061031;28;20453;-93
2021/04/02 10:15:55;;;;;;;10.93;7.30;;;;;;;;;;5059819;28;20490;-91
2021/04/02 10:18:22;;;;;;;9.60;8.37;;;;;;;;;;5054678;28;20466;-93
2021/04/02 10:20:48;;;;;;;9.30;8.40;;;;;;;;;;5057107;28;20856;-86
2021/04/02 10:23:16;;;;;;;8.63;7.83;;;15.00;86.00;;;;;;5053877;28;20477;-85
2021/04/02 10:25:43;;;;;;;8.40;7.60;;;;;;;;;;5054432;28;20508;-86
2021/04/02 10:28:09;;;;;;;8.93;8.03;;;;;;;;;;5056364;28;20933;-84
2021/04/02 10:30:36;;;;;;;10.37;8.33;;;;;;;;;;5053270;28;20446;-85
2021/04/02 10:33:03;;;;;;;9.67;7.57;;;;;;;;;;5053205;28;20450;-84
2021/04/02 10:35:31;;;;;;;9.13;8.33;;;;;;;;;;5056124;28;20494;-87
2021/04/02 10:37:58;;;;;;;8.60;7.70;;;;;;;;;;5054881;28;20512;-86
2021/04/02 10:40:25;;;;;;;8.47;7.77;;;18.00;79.10;;;;;;5053724;28;20455;-85
2021/04/02 10:42:52;;;;;;;8.10;7.30;;;;;;;;;;5054314;28;20451;-85
2021/04/02 10:45:19;;;;;;;9.33;7.90;;;;;;;;;;5053713;28;20512;-90
2021/04/02 10:47:45;;;;;;;8.00;7.20;;;;;;;;;;5056209;28;20451;-90
2021/04/02 10:50:12;;;;;;;12.30;7.80;;;;;;;;;;5054472;28;20946;-85
2021/04/02 10:52:39;;;;;;;8.13;7.37;;;;;;;;;;5053068;28;20458;-86
2021/04/02 10:55:06;;;;;;;10.63;6.77;;;;;;;;;;5052863;28;20505;-85
2021/04/02 10:57:34;;;;;;;8.20;7.00;;;;;;;;;;5047758;28;20952;-87
2021/04/02 11:00:00;;;;;;;9.00;8.20;;;;;;;;;;5048571;28;20466;-89
2021/04/02 11:02:27;;;;;;;8.83;7.97;;;;;;;;;;5056054;28;20442;-89
2021/04/02 11:04:54;;;;;;;8.80;8.00;;;;;;;;;;5050223;28;20446;-91
2021/04/02 11:07:20;;;;;;;7.80;7.10;;;;;;;;;;5057173;28;20496;-91
2021/04/02 11:09:47;;;;;;;8.00;7.20;;;;;;;;;;5054899;28;20457;-93
2021/04/02 11:12:13;;;;;;;7.80;7.10;;;;;;;;;;5056566;28;20467;-85
2021/04/02 11:14:41;;;;;;;8.00;7.20;;;18.50;75.70;;;;;;5057201;28;20493;-90
2021/04/02 11:17:07;;;;;;;8.17;7.30;;;;;;;;;;5053521;28;20481;-93
2021/04/02 11:19:34;;;;;;;6.97;6.27;;;;;;;;;;5064539;28;20442;-89
2021/04/02 11:22:00;;;;;;;7.80;7.00;;;;;;;;;;5075384;28;20941;-87
2021/04/02 11:24:28;;;;;;;7.33;6.63;;;;;;;;;;5075954;28;21126;-87
2021/04/02 11:26:55;;;;;;;8.37;7.57;;;17.50;72.40;;;;;;5054452;28;20443;-90
2021/04/02 11:29:22;;;;;;;7.17;6.10;;;;;;;;;;5044880;28;20438;-92
2021/04/02 11:31:49;;;;;;;7.67;6.87;;;17.60;73.90;;;;;;5045395;28;20450;-86
2021/04/02 11:34:16;;;;;;;7.03;6.20;;;;;;;;;;5054004;28;20490;-86
2021/04/02 11:36:45;;;;;;;6.83;6.17;;;17.60;93.80;;;;;;5055427;28;20439;-84
2021/04/02 11:39:17;;;;;;;7.33;6.63;;;16.60;76.30;;;;;;5054220;28;20484;-86
2021/04/02 11:41:44;;;;;;;8.37;7.57;;;;;;;;;;5053435;28;20541;-88
2021/04/02 11:44:13;;;;;;;9.27;7.10;;;16.60;91.60;;;;;;5052545;28;20439;-95
2021/04/02 11:46:42;;;;;;;7.43;6.73;;;;;;;;;;5049939;28;20443;-90
2021/04/02 11:49:09;;;;;;;7.03;6.30;;;17.30;73.80;;;;;;5042747;28;20447;-89
2021/04/02 11:51:36;;;;;;;8.00;6.90;;;;;;;;;;5033788;28;20543;-91
2021/04/02 11:54:02;;;;;;;11.73;6.60;;;;;;;;;;5033759;28;20443;-90
2021/04/02 11:56:29;;;;;;;7.13;6.43;;;;;;;;;;5043300;28;20451;-91
2021/04/02 11:58:55;;;;;;;7.33;6.10;;;17.30;86.70;;;;;;5053320;28;20549;-90
2021/04/02 12:01:22;;;;;;;8.50;6.93;;;16.50;92.30;;;;;;5037752;28;20450;-88
2021/04/02 12:03:49;;;;;;;6.50;6.00;;;17.60;90.00;;;;;;5033064;28;20443;-91
2021/04/02 12:06:16;;;;;;;6.80;6.20;;;17.80;93.60;;;;;;5027684;28;20451;-90
2021/04/02 12:08:43;;;;;;;6.73;6.17;;;17.10;88.80;;;;;;5030010;28;20506;-89
2021/04/02 12:11:09;;;;;;;6.73;6.13;;;;;;;;;;5044857;28;20462;-91
2021/04/02 12:13:36;;;;;;;6.43;5.83;;;;;;;;;;5052712;28;20443;-89
2021/04/02 12:16:03;;;;;;;7.47;6.80;;;18.20;70.90;;;;;;5054001;28;20794;-89
2021/04/02 12:18:29;;;;;;;6.67;6.03;;;17.10;91.00;;;;;;5056074;28;20474;-90
2021/04/02 12:20:56;;;;;;;6.80;5.50;;;17.60;84.90;;;;;;5052364;28;20457;-89
2021/04/02 12:23:23;;;;;;;5.60;5.10;;;18.20;68.50;;;;;;5056203;28;20446;-90
2021/04/02 12:25:50;;;;;;;7.00;6.37;;;;;;;;;;5056823;28;20461;-89
2021/04/02 12:28:17;;;;;;;6.67;6.00;;;;;;;;;;5056449;28;20454;-87
2021/04/02 12:30:43;;;;;;;6.33;5.73;;;;;;;;;;5055207;28;20450;-90
2021/04/02 12:33:09;;;;;;;7.03;6.37;;;17.10;86.60;;;;;;5058153;28;20454;-84
2021/04/02 12:35:37;;;;;;;6.70;6.10;;;17.30;69.00;;;;;;5050153;28;21000;-89
2021/04/02 12:38:08;;;;;;;5.43;5.00;;;;;;;;;;5054107;28;20446;-90
2021/04/02 12:40:36;;;;;;;5.73;5.23;;;18.00;92.80;;;;;;5052339;28;20477;-88
2021/04/02 12:43:03;;;;;;;6.23;5.63;;;18.60;70.10;;;;;;5055407;28;20441;-92
2021/04/02 12:45:30;;;;;;;6.50;5.33;;;17.90;88.20;;;;;;5046211;28;20454;-89
2021/04/02 12:47:59;;;;;;;6.37;5.47;;;18.40;68.40;;;;;;5054839;28;20443;-92
2021/04/02 12:50:26;;;;;;;5.77;5.27;;;18.40;67.70;;;;;;5057074;28;20499;-92
2021/04/02 12:52:55;;;;;;;5.10;4.70;;;18.90;66.70;;;;;;5056345;28;20504;-91
2021/04/02 12:55:24;;;;;;;5.80;5.30;;;19.00;65.60;;;;;;5053860;28;20486;-91
2021/04/02 12:57:51;;;;;;;7.00;6.37;;;19.10;82.10;;;;;;5056516;28;20443;-93
2021/04/02 13:00:21;;;;;;;5.93;5.40;;;17.40;68.40;;;;;;5037587;28;20463;-93
2021/04/02 13:02:47;;;;;;;6.53;6.03;;;;;;;;;;5054131;28;20455;-90
2021/04/02 13:05:15;;;;;;;6.27;5.67;;;17.70;67.30;;;;;;5057162;28;20961;-91
2021/04/02 13:07:42;;;;;;;6.40;5.80;;;18.00;89.40;;;;;;5054505;28;20459;-93
2021/04/02 13:10:10;;;;;;;5.80;5.30;;;17.40;86.10;;;;;;5043086;28;20448;-91
2021/04/02 13:12:40;;;;;;;6.37;5.80;;;18.20;69.30;;;;;;5029930;28;20451;-92
2021/04/02 13:15:10;;;;;;;6.73;6.10;;;17.60;84.00;;;;;;5035226;28;20586;-92
2021/04/02 13:17:37;;;;;;;6.50;5.90;;;17.60;90.30;;;;;;5036991;28;20479;-91
2021/04/02 13:20:05;;;;;;;5.37;4.87;;;18.20;83.30;;;;;;5037540;28;20455;-92
2021/04/02 13:22:32;;;;;;;6.43;5.07;;;;;;;;;;5052119;28;20450;-94
2021/04/02 13:25:01;;;;;;;6.43;5.03;;;18.20;91.00;;;;;;5041097;28;20451;-91